createdAt,value
2022-09-17T00:01:08.818Z,5.57
2022-09-17T00:03:36.376Z,6.07
2022-09-17T00:06:09.153Z,6.10
2022-09-17T00:08:38.159Z,6.03
2022-09-17T00:11:14.861Z,5.88
2022-09-17T00:13:45.431Z,5.85
2022-09-17T00:16:13.626Z,5.90
2022-09-17T00:18:42.108Z,5.13
2022-09-17T00:21:17.766Z,6.03
2022-09-17T00:23:44.822Z,6.20
2022-09-17T00:26:12.755Z,6.03
2022-09-17T00:28:39.948Z,6.32
2022-09-17T00:31:09.244Z,6.95
2022-09-17T00:33:37.056Z,6.22
2022-09-17T00:36:05.510Z,5.90
2022-09-17T00:38:32.816Z,5.38
2022-09-17T00:41:00.274Z,6.57
2022-09-17T00:43:39.401Z,5.80
2022-09-17T00:46:24.059Z,6.40
2022-09-17T00:48:54.153Z,5.40
2022-09-17T00:51:28.382Z,6.13
2022-09-17T00:53:56.941Z,5.93
2022-09-17T00:56:28.198Z,5.97
2022-09-17T00:58:55.976Z,6.00
2022-09-17T01:01:23.102Z,6.05
2022-09-17T01:03:50.447Z,5.82
2022-09-17T01:06:29.371Z,5.55
2022-09-17T01:09:05.346Z,5.88
2022-09-17T01:11:55.476Z,5.43
2022-09-17T01:14:37.348Z,5.83
2022-09-17T01:17:30.677Z,5.20
2022-09-17T01:20:11.145Z,5.20
2022-09-17T01:23:10.527Z,5.35
2022-09-17T01:25:57.866Z,5.22
2022-09-17T01:28:46.078Z,5.05
2022-09-17T01:31:25.765Z,4.97
2022-09-17T01:34:07.640Z,4.90
2022-09-17T01:36:50.600Z,4.85
2022-09-17T01:39:38.942Z,5.50
2022-09-17T01:42:36.215Z,5.45
2022-09-17T01:45:10.680Z,5.35
2022-09-17T01:47:42.814Z,5.63
2022-09-17T01:50:21.449Z,5.82
2022-09-17T01:52:52.719Z,5.55
2022-09-17T01:55:23.024Z,6.13
2022-09-17T01:58:08.583Z,6.25
2022-09-17T02:00:37.862Z,5.75
2022-09-17T02:03:14.552Z,5.70
2022-09-17T02:05:57.058Z,5.13
2022-09-17T02:08:26.715Z,5.53
2022-09-17T02:11:09.758Z,5.72
2022-09-17T02:13:59.143Z,5.55
2022-09-17T02:16:27.365Z,5.25
2022-09-17T02:19:00.340Z,5.32
2022-09-17T02:21:44.308Z,5.53
2022-09-17T02:24:38.198Z,5.03
2022-09-17T02:27:12.454Z,5.30
2022-09-17T02:29:44.459Z,5.60
2022-09-17T02:32:13.946Z,5.45
2022-09-17T02:34:41.473Z,5.28
2022-09-17T02:37:09.309Z,5.60
2022-09-17T02:39:36.418Z,4.97
2022-09-17T02:42:45.164Z,5.30
2022-09-17T02:45:30.873Z,5.53
2022-09-17T02:48:23.291Z,5.13
2022-09-17T02:51:01.284Z,5.93
2022-09-17T02:54:13.448Z,5.65
2022-09-17T02:56:58.054Z,5.75
2022-09-17T02:59:42.266Z,5.43
2022-09-17T03:02:31.145Z,5.90
2022-09-17T03:04:59.295Z,4.65
2022-09-17T03:07:29.445Z,5.68
2022-09-17T03:09:56.554Z,6.10
2022-09-17T03:12:24.756Z,5.82
2022-09-17T03:14:52.058Z,5.72
2022-09-17T03:17:19.112Z,6.22
2022-09-17T03:19:46.052Z,5.43
2022-09-17T03:22:13.093Z,5.72
2022-09-17T03:24:40.032Z,5.90
2022-09-17T03:27:06.987Z,5.63
2022-09-17T03:29:34.335Z,5.95
2022-09-17T03:32:01.553Z,6.00
2022-09-17T03:34:28.654Z,5.78
2022-09-17T03:36:55.714Z,5.40
2022-09-17T03:39:22.669Z,6.18
2022-09-17T03:41:49.784Z,4.72
2022-09-17T03:44:18.931Z,6.40
2022-09-17T03:46:46.351Z,5.90
2022-09-17T03:49:13.342Z,6.53
2022-09-17T03:51:40.289Z,5.85
2022-09-17T03:54:07.621Z,6.30
2022-09-17T03:56:35.037Z,5.90
2022-09-17T03:59:02.491Z,6.32
2022-09-17T04:01:30.248Z,7.10
2022-09-17T04:03:58.114Z,7.20
2022-09-17T04:06:25.284Z,6.63
2022-09-17T04:08:53.781Z,6.90
2022-09-17T04:11:20.750Z,11.55
2022-09-17T04:13:48.010Z,9.63
2022-09-17T04:16:15.361Z,10.05
2022-09-17T04:18:42.346Z,8.77
2022-09-17T04:21:09.365Z,7.10
2022-09-17T04:23:36.281Z,7.30
2022-09-17T04:26:03.378Z,7.15
2022-09-17T04:28:30.374Z,6.30
2022-09-17T04:30:58.054Z,6.53
2022-09-17T04:33:25.159Z,5.85
2022-09-17T04:35:54.587Z,6.80
2022-09-17T04:38:22.515Z,5.70
2022-09-17T04:40:50.407Z,6.43
2022-09-17T04:43:17.814Z,6.72
2022-09-17T04:45:48.556Z,6.75
2022-09-17T04:48:15.677Z,6.60
2022-09-17T04:50:42.776Z,6.20
2022-09-17T04:53:09.986Z,5.75
2022-09-17T04:55:36.882Z,6.72
2022-09-17T04:58:04.960Z,6.60
2022-09-17T05:00:31.908Z,5.93
2022-09-17T05:02:58.856Z,6.10
2022-09-17T05:05:25.987Z,5.45
2022-09-17T05:07:53.355Z,5.65
2022-09-17T05:10:21.919Z,5.53
2022-09-17T05:12:50.406Z,5.57
2022-09-17T05:15:17.577Z,6.10
2022-09-17T05:17:44.683Z,5.57
2022-09-17T05:20:12.645Z,4.72
2022-09-17T05:22:50.296Z,5.00
2022-09-17T05:25:19.079Z,4.95
2022-09-17T05:27:46.260Z,5.50
2022-09-17T05:30:13.980Z,5.05
2022-09-17T05:32:41.213Z,4.97
2022-09-17T05:35:09.401Z,4.28
2022-09-17T05:37:37.301Z,4.57
2022-09-17T05:40:07.422Z,5.25
2022-09-17T05:42:34.918Z,4.78
2022-09-17T05:45:01.886Z,4.65
2022-09-17T05:47:28.865Z,4.70
2022-09-17T05:49:55.805Z,5.32
2022-09-17T05:52:22.934Z,5.00
2022-09-17T05:54:49.950Z,4.47
2022-09-17T05:57:17.128Z,4.50
2022-09-17T05:59:44.067Z,4.00
2022-09-17T06:02:14.276Z,4.15
2022-09-17T06:04:41.488Z,3.55
2022-09-17T06:07:09.698Z,3.90
2022-09-17T06:09:41.414Z,3.55
2022-09-17T06:12:08.954Z,3.67
2022-09-17T06:14:35.875Z,4.95
2022-09-17T06:17:02.819Z,4.05
2022-09-17T06:19:29.716Z,4.13
2022-09-17T06:21:56.700Z,3.22
2022-09-17T06:24:23.725Z,3.35
2022-09-17T06:26:52.427Z,4.40
2022-09-17T06:29:19.652Z,7.10
2022-09-17T06:31:49.159Z,4.75
2022-09-17T06:34:16.914Z,3.75
2022-09-17T06:36:44.290Z,3.65
2022-09-17T06:39:12.052Z,3.67
2022-09-17T06:41:39.506Z,3.33
2022-09-17T06:44:06.453Z,2.78
2022-09-17T06:46:33.432Z,2.97
2022-09-17T06:49:00.457Z,2.90
2022-09-17T06:51:27.379Z,2.75
2022-09-17T06:53:54.334Z,2.97
2022-09-17T06:56:21.308Z,3.05
2022-09-17T06:58:48.272Z,2.63
2022-09-17T07:01:15.297Z,2.50
2022-09-17T07:03:46.345Z,2.40
2022-09-17T07:06:13.328Z,2.22
2022-09-17T07:08:40.546Z,2.38
2022-09-17T07:11:08.657Z,2.28
2022-09-17T07:13:36.130Z,2.25
2022-09-17T07:16:05.413Z,2.50
2022-09-17T07:18:32.978Z,2.33
2022-09-17T07:21:02.387Z,2.13
2022-09-17T07:23:32.221Z,2.85
2022-09-17T07:26:04.478Z,2.35
2022-09-17T07:28:31.642Z,2.60
2022-09-17T07:30:58.609Z,2.28
2022-09-17T07:33:28.152Z,3.00
2022-09-17T07:35:57.421Z,2.50
2022-09-17T07:38:25.269Z,2.55
2022-09-17T07:41:06.240Z,2.22
2022-09-17T07:43:35.334Z,2.28
2022-09-17T07:46:04.478Z,2.10
2022-09-17T07:48:32.031Z,3.03
2022-09-17T07:50:58.992Z,2.42
2022-09-17T07:53:26.455Z,2.33
2022-09-17T07:55:55.124Z,2.38
2022-09-17T07:58:24.350Z,1.98
2022-09-17T08:00:51.357Z,2.17
2022-09-17T08:03:18.309Z,2.10
2022-09-17T08:05:45.326Z,1.98
2022-09-17T08:08:12.178Z,2.50
2022-09-17T08:10:39.151Z,3.10
2022-09-17T08:13:06.268Z,2.25
2022-09-17T08:15:33.121Z,1.92
2022-09-17T08:18:00.071Z,2.10
2022-09-17T08:20:27.017Z,2.70
2022-09-17T08:23:01.402Z,2.35
2022-09-17T08:25:28.427Z,3.10
2022-09-17T08:27:57.078Z,3.33
2022-09-17T08:30:24.375Z,3.20
2022-09-17T08:32:51.403Z,3.65
2022-09-17T08:35:18.416Z,3.70
2022-09-17T08:37:46.406Z,3.42
2022-09-17T08:40:22.822Z,3.20
2022-09-17T08:43:00.647Z,3.08
2022-09-17T08:45:28.159Z,3.38
2022-09-17T08:48:03.403Z,2.60
2022-09-17T08:50:34.360Z,2.65
2022-09-17T08:53:40.620Z,3.00
2022-09-17T08:56:16.441Z,3.55
2022-09-17T08:58:49.008Z,3.05
2022-09-17T09:01:43.218Z,3.20
2022-09-17T09:04:19.608Z,1.92
2022-09-17T09:07:23.499Z,2.03
2022-09-17T09:10:04.799Z,1.90
2022-09-17T09:12:35.934Z,2.45
2022-09-17T09:15:20.524Z,2.00
2022-09-17T09:17:51.319Z,1.88
2022-09-17T09:23:19.490Z,1.70
2022-09-17T09:26:04.729Z,1.60
2022-09-17T09:28:59.415Z,1.90
2022-09-17T09:31:44.711Z,1.60
2022-09-17T09:34:14.590Z,1.60
2022-09-17T09:36:41.762Z,2.22
2022-09-17T09:39:22.378Z,2.50
2022-09-17T09:41:59.850Z,2.50
2022-09-17T09:44:27.559Z,1.80
2022-09-17T09:47:12.942Z,1.92
2022-09-17T09:50:02.824Z,2.00
2022-09-17T09:52:43.250Z,1.40
2022-09-17T09:55:31.902Z,1.67
2022-09-17T09:58:20.789Z,1.60
2022-09-17T10:00:48.267Z,1.58
2022-09-17T10:03:23.584Z,1.88
2022-09-17T10:05:55.044Z,1.80
2022-09-17T10:08:22.058Z,1.98
2022-09-17T10:11:04.057Z,2.00
2022-09-17T10:13:36.546Z,2.03
2022-09-17T10:16:23.285Z,1.85
2022-09-17T10:18:52.079Z,1.90
2022-09-17T10:21:30.679Z,1.70
2022-09-17T10:23:58.414Z,2.05
2022-09-17T10:26:29.529Z,4.30
2022-09-17T10:28:59.160Z,5.78
2022-09-17T10:31:26.419Z,3.97
2022-09-17T10:34:02.602Z,2.53
2022-09-17T10:36:40.522Z,1.80
2022-09-17T10:39:44.602Z,1.95
2022-09-17T10:42:11.596Z,1.60
2022-09-17T10:44:39.804Z,2.30
2022-09-17T10:47:19.405Z,2.10
2022-09-17T10:50:08.372Z,1.80
2022-09-17T10:52:47.732Z,2.13
2022-09-17T10:55:30.764Z,1.90
2022-09-17T10:58:07.653Z,1.80
2022-09-17T11:01:00.473Z,2.03
2022-09-17T11:03:36.358Z,2.10
2022-09-17T11:06:21.564Z,2.22
2022-09-17T11:09:27.578Z,2.00
2022-09-17T11:11:57.694Z,2.75
2022-09-17T11:15:02.840Z,4.22
2022-09-17T11:18:06.979Z,4.15
2022-09-17T11:20:52.407Z,2.42
2022-09-17T11:23:42.967Z,2.40
2022-09-17T11:26:21.812Z,2.40
2022-09-17T11:29:06.684Z,2.22
2022-09-17T11:31:52.297Z,2.00
2022-09-17T11:34:36.359Z,2.15
2022-09-17T11:37:13.110Z,2.30
2022-09-17T11:39:49.869Z,1.83
2022-09-17T11:42:28.586Z,1.80
2022-09-17T11:45:03.216Z,2.20
2022-09-17T11:47:35.686Z,1.98
2022-09-17T11:50:02.848Z,1.98
2022-09-17T11:52:40.449Z,2.13
2022-09-17T11:55:34.118Z,2.28
2022-09-17T11:58:08.311Z,2.25
2022-09-17T12:00:47.612Z,2.65
2022-09-17T12:03:26.583Z,2.40
2022-09-17T12:05:57.047Z,2.58
2022-09-17T12:08:34.108Z,3.20
2022-09-17T12:11:19.602Z,4.65
2022-09-17T12:13:49.106Z,5.10
2022-09-17T12:16:33.699Z,5.05
2022-09-17T12:19:16.977Z,5.00
2022-09-17T12:21:48.177Z,5.07
2022-09-17T12:24:26.493Z,5.55
2022-09-17T12:27:23.052Z,5.20
2022-09-17T12:30:07.166Z,5.85
2022-09-17T12:33:12.151Z,5.00
2022-09-17T12:36:05.185Z,5.95
2022-09-17T12:39:08.429Z,7.57
2022-09-17T12:42:08.932Z,6.32
2022-09-17T12:44:56.210Z,5.90
2022-09-17T12:47:51.526Z,3.50
2022-09-17T12:50:36.817Z,3.70
2022-09-17T12:53:28.035Z,4.63
2022-09-17T12:56:18.044Z,3.70
2022-09-17T12:58:55.888Z,4.28
2022-09-17T13:01:34.005Z,4.43
2022-09-17T13:04:13.282Z,4.47
2022-09-17T13:07:14.609Z,3.28
2022-09-17T13:10:06.088Z,3.88
2022-09-17T13:13:10.269Z,3.10
2022-09-17T13:15:43.127Z,3.50
2022-09-17T13:18:27.130Z,3.72
2022-09-17T13:21:13.775Z,4.63
2022-09-17T13:23:46.778Z,6.32
2022-09-17T13:26:17.592Z,5.13
2022-09-17T13:31:40.196Z,4.40
2022-09-17T13:34:19.468Z,2.30
2022-09-17T13:36:53.596Z,2.33
2022-09-17T13:39:47.011Z,2.30
2022-09-17T13:42:18.085Z,1.90
2022-09-17T13:44:50.293Z,2.38
2022-09-17T13:47:30.681Z,1.90
2022-09-17T13:50:09.701Z,2.15
2022-09-17T13:52:39.933Z,2.00
2022-09-17T13:55:08.923Z,1.85
2022-09-17T13:57:50.250Z,1.95
2022-09-17T14:01:15.062Z,1.77
2022-09-17T14:03:42.281Z,2.05
2022-09-17T14:06:09.711Z,2.45
2022-09-17T14:08:45.830Z,3.17
2022-09-17T14:11:25.630Z,2.50
2022-09-17T14:13:59.062Z,2.70
2022-09-17T14:16:29.499Z,2.50
2022-09-17T14:19:22.780Z,2.55
2022-09-17T14:22:00.913Z,3.10
2022-09-17T14:24:39.801Z,3.25
2022-09-17T14:27:30.735Z,3.22
2022-09-17T14:32:42.561Z,3.53
2022-09-17T14:35:36.181Z,3.83
2022-09-17T14:38:10.736Z,3.80
2022-09-17T14:40:46.556Z,3.65
2022-09-17T14:43:38.774Z,3.58
2022-09-17T14:46:10.214Z,3.63
2022-09-17T14:48:37.555Z,3.28
2022-09-17T14:51:20.104Z,2.97
2022-09-17T14:53:49.455Z,3.20
2022-09-17T14:56:23.677Z,3.50
2022-09-17T14:58:53.963Z,3.08
2022-09-17T15:01:25.525Z,3.35
2022-09-17T15:04:31.074Z,3.45
2022-09-17T15:07:09.869Z,3.50
2022-09-17T15:09:36.993Z,3.42
2022-09-17T15:12:06.683Z,3.60
2022-09-17T15:14:40.137Z,3.30
2022-09-17T15:17:09.339Z,3.70
2022-09-17T15:19:43.121Z,3.75
2022-09-17T15:22:29.928Z,3.60
2022-09-17T15:25:01.464Z,4.10
2022-09-17T15:27:34.213Z,5.43
2022-09-17T15:30:17.236Z,5.75
2022-09-17T15:32:51.535Z,5.20
2022-09-17T15:35:26.175Z,6.40
2022-09-17T15:38:21.756Z,6.50
2022-09-17T15:40:46.544Z,5.88
2022-09-17T15:43:28.710Z,7.38
2022-09-17T15:45:58.493Z,5.70
2022-09-17T15:48:37.844Z,6.15
2022-09-17T15:51:15.441Z,6.30
2022-09-17T15:53:55.759Z,6.47
2022-09-17T15:56:34.562Z,6.43
2022-09-17T15:59:23.188Z,6.20
2022-09-17T16:01:54.675Z,8.48
2022-09-17T16:04:23.193Z,8.68
2022-09-17T16:06:55.694Z,8.25
2022-09-17T16:09:41.675Z,7.55
2022-09-17T16:12:12.965Z,6.80
2022-09-17T16:14:44.412Z,6.30
2022-09-17T16:17:33.263Z,6.00
2022-09-17T16:20:06.482Z,5.38
2022-09-17T16:22:33.958Z,5.38
2022-09-17T16:25:00.858Z,8.05
2022-09-17T16:27:32.749Z,9.90
2022-09-17T16:30:06.072Z,11.70
2022-09-17T16:32:33.013Z,12.25
2022-09-17T16:35:00.171Z,15.48
2022-09-17T16:37:27.058Z,41.85
2022-09-17T16:39:54.227Z,18.30
2022-09-17T16:42:21.190Z,20.63
2022-09-17T16:44:48.151Z,15.30
2022-09-17T16:47:15.098Z,32.13
2022-09-17T16:49:42.071Z,45.70
2022-09-17T16:52:09.013Z,69.13
2022-09-17T16:54:35.888Z,80.53
2022-09-17T16:57:02.876Z,69.10
2022-09-17T16:59:29.801Z,65.22
2022-09-17T17:01:56.752Z,56.20
2022-09-17T17:04:24.785Z,60.17
2022-09-17T17:06:52.115Z,59.22
2022-09-17T17:09:19.051Z,68.45
2022-09-17T17:11:45.997Z,63.65
2022-09-17T17:14:14.918Z,67.40
2022-09-17T17:16:43.864Z,53.45
2022-09-17T17:19:11.286Z,58.80
2022-09-17T17:21:38.467Z,51.10
2022-09-17T17:24:07.026Z,45.95
2022-09-17T17:26:34.940Z,37.97
2022-09-17T17:29:03.274Z,33.63
2022-09-17T17:31:30.398Z,26.50
2022-09-17T17:33:58.523Z,24.27
2022-09-17T17:36:25.734Z,23.42
2022-09-17T17:38:57.296Z,18.63
2022-09-17T17:41:26.733Z,18.02
2022-09-17T17:43:54.624Z,15.90
2022-09-17T17:46:23.799Z,13.93
2022-09-17T17:48:51.571Z,14.02
2022-09-17T17:51:19.642Z,12.77
2022-09-17T17:53:47.031Z,12.82
2022-09-17T17:56:14.156Z,13.98
2022-09-17T17:58:41.621Z,14.02
2022-09-17T18:01:21.286Z,15.00
2022-09-17T18:03:48.500Z,15.82
2022-09-17T18:06:15.887Z,16.15
2022-09-17T18:08:44.502Z,16.25
2022-09-17T18:11:12.587Z,16.88
2022-09-17T18:13:40.435Z,18.30
2022-09-17T18:16:09.398Z,18.23
2022-09-17T18:18:44.850Z,19.45
2022-09-17T18:21:16.238Z,19.30
2022-09-17T18:23:43.895Z,20.55
2022-09-17T18:26:16.710Z,19.48
2022-09-17T18:28:45.042Z,21.80
2022-09-17T18:31:33.523Z,22.45
2022-09-17T18:34:08.541Z,21.58
2022-09-17T18:36:37.277Z,20.83
2022-09-17T18:39:33.227Z,20.83
2022-09-17T18:41:54.022Z,22.85
2022-09-17T18:44:22.129Z,19.85
2022-09-17T18:46:50.404Z,22.27
2022-09-17T18:49:17.810Z,21.98
2022-09-17T18:51:44.763Z,20.45
2022-09-17T18:54:13.037Z,21.25
2022-09-17T18:56:41.994Z,22.23
2022-09-17T18:59:10.222Z,20.20
2022-09-17T19:01:37.350Z,22.83
2022-09-17T19:04:05.047Z,26.85
2022-09-17T19:06:32.552Z,28.25
2022-09-17T19:09:04.978Z,33.08
2022-09-17T19:11:32.346Z,31.42
2022-09-17T19:13:59.478Z,39.40
2022-09-17T19:16:26.525Z,61.42
2022-09-17T19:18:53.983Z,73.35
2022-09-17T19:21:22.068Z,78.20
2022-09-17T19:23:51.343Z,65.22
2022-09-17T19:26:21.325Z,68.15
2022-09-17T19:28:48.378Z,66.00
2022-09-17T19:31:18.188Z,63.80
2022-09-17T19:33:45.963Z,64.80
2022-09-17T19:36:15.326Z,65.70
2022-09-17T19:38:42.868Z,66.97
2022-09-17T19:41:15.187Z,56.65
2022-09-17T19:43:42.572Z,59.40
2022-09-17T19:46:13.737Z,57.15
2022-09-17T19:48:51.257Z,59.05
2022-09-17T19:51:18.764Z,54.08
2022-09-17T19:53:45.977Z,49.28
2022-09-17T19:56:15.320Z,54.08
2022-09-17T19:58:42.991Z,52.50
2022-09-17T20:01:11.148Z,46.83
2022-09-17T20:03:43.243Z,40.22
2022-09-17T20:06:13.393Z,41.55
2022-09-17T20:08:54.810Z,40.25
2022-09-17T20:11:24.242Z,33.63
2022-09-17T20:13:57.221Z,33.70
2022-09-17T20:16:24.759Z,33.35
2022-09-17T20:18:51.962Z,28.23
2022-09-17T20:21:30.036Z,30.25
2022-09-17T20:23:58.027Z,32.13
2022-09-17T20:26:26.265Z,27.25
2022-09-17T20:28:54.292Z,29.58
2022-09-17T20:31:27.519Z,27.95
2022-09-17T20:33:59.873Z,29.90
2022-09-17T20:36:33.605Z,29.55
2022-09-17T20:39:21.367Z,28.60
2022-09-17T20:41:47.758Z,28.20
2022-09-17T20:44:14.772Z,31.50
2022-09-17T20:46:41.908Z,30.95
2022-09-17T20:49:09.288Z,25.13
2022-09-17T20:51:37.413Z,29.73
2022-09-17T20:54:05.037Z,27.98
2022-09-17T20:56:34.136Z,22.45
2022-09-17T20:59:25.212Z,27.98
2022-09-17T21:01:53.929Z,26.70
2022-09-17T21:04:21.534Z,27.73
2022-09-17T21:06:52.824Z,26.15
2022-09-17T21:09:20.946Z,21.90
2022-09-17T21:11:49.273Z,25.33
2022-09-17T21:14:21.602Z,25.90
2022-09-17T21:16:49.419Z,22.92
2022-09-17T21:19:16.867Z,25.98
2022-09-17T21:21:44.478Z,23.98
2022-09-17T21:24:11.628Z,26.48
2022-09-17T21:26:38.607Z,25.70
2022-09-17T21:29:05.601Z,26.33
2022-09-17T21:31:34.635Z,27.95
2022-09-17T21:34:04.882Z,28.17
2022-09-17T21:36:33.993Z,27.58
2022-09-17T21:39:04.214Z,28.67
2022-09-17T21:41:31.694Z,31.17
2022-09-17T21:43:58.754Z,25.65
2022-09-17T21:46:32.751Z,30.15
2022-09-17T21:49:02.503Z,27.80
2022-09-17T21:51:34.350Z,30.70
2022-09-17T21:54:03.263Z,31.30
2022-09-17T21:56:31.176Z,28.73
2022-09-17T21:59:00.531Z,28.23
2022-09-17T22:01:32.059Z,28.10
2022-09-17T22:04:00.532Z,25.38
2022-09-17T22:06:30.018Z,26.55
2022-09-17T22:08:58.626Z,27.98
2022-09-17T22:11:32.228Z,25.15
2022-09-17T22:14:09.519Z,21.73
2022-09-17T22:16:39.734Z,25.27
2022-09-17T22:19:08.162Z,25.67
2022-09-17T22:21:37.791Z,25.08
2022-09-17T22:24:06.294Z,24.77
2022-09-17T22:26:36.454Z,21.60
2022-09-17T22:29:12.241Z,27.02
2022-09-17T22:31:39.966Z,21.65
2022-09-17T22:34:09.397Z,23.90
2022-09-17T22:36:36.763Z,24.80
2022-09-17T22:39:04.690Z,25.48
2022-09-17T22:41:34.121Z,23.90
2022-09-17T22:44:04.272Z,25.00
2022-09-17T22:46:33.721Z,25.30
2022-09-17T22:49:01.146Z,22.80
2022-09-17T22:51:29.890Z,22.73
2022-09-17T22:53:58.655Z,23.38
2022-09-17T22:56:27.600Z,25.77
2022-09-17T22:58:56.709Z,24.05
2022-09-17T23:01:29.942Z,22.63
2022-09-17T23:03:58.414Z,21.98
2022-09-17T23:06:30.910Z,22.42
2022-09-17T23:08:58.861Z,22.42
2022-09-17T23:11:34.269Z,20.35
2022-09-17T23:14:04.813Z,21.35
2022-09-17T23:16:37.122Z,21.23
2022-09-17T23:19:04.320Z,20.83
2022-09-17T23:21:31.449Z,22.48
2022-09-17T23:23:58.863Z,22.50
2022-09-17T23:26:27.339Z,24.50
2022-09-17T23:28:54.304Z,22.02
2022-09-17T23:31:28.796Z,26.15
2022-09-17T23:33:57.158Z,25.05
2022-09-17T23:36:27.364Z,26.90
2022-09-17T23:38:55.667Z,26.40
2022-09-17T23:41:28.598Z,27.42
2022-09-17T23:43:57.683Z,25.30
2022-09-17T23:46:26.457Z,27.55
2022-09-17T23:48:56.153Z,27.25
2022-09-17T23:51:27.716Z,22.38
2022-09-17T23:53:55.386Z,22.90
2022-09-17T23:56:28.258Z,23.05
2022-09-17T23:58:57.135Z,25.17
